Terminal Aerodrome Forecast
Issued by NWS Bismarck, ND

Home | Current Version | Previous Version | Text Only | Print | Product List | Glossary Off
Versions: 1 2 3 4 5 6 7 8 9 10 11 12 13 14

000
FTUS43 KBIS 291834 AAA
TAFBIS
TAF AMD
KBIS 291834Z 2919/3018 04012KT P6SM SKC
     FM301500 06014G21KT P6SM SCT100=

USA.gov is the U.S. government's official web portal to all federal, state and local government web resources and services.